Time;durP1;ratioP1;P1;durP2;ratioP2;P2;SDS_P1;SDS_P2;PMS_P1;PMS_P2;Temp;Humidity;BMP_temperature;BMP_pressure;BME280_temperature;BME280_humidity;BME280_pressure;Samples;Min_cycle;Max_cycle;Signal;HPM_P1;HPM_P2
2021/01/10 00:01:21;;;;;;;10.93;6.18;;;;;;;1.38;60.77;102037.97;8072656;28;20080;-61
2021/01/10 00:05:20;;;;;;;10.23;5.97;;;;;;;1.39;59.92;102032.78;8074054;28;20308;-63
2021/01/10 00:09:11;;;;;;;13.40;6.50;;;;;;;1.39;60.51;102026.75;8094529;28;20063;-63
2021/01/10 00:13:03;;;;;;;13.43;6.40;;;;;;;1.38;60.22;102022.44;8105618;28;20796;-63
2021/01/10 00:16:54;;;;;;;14.32;7.07;;;;;;;1.37;60.69;102037.13;8105458;28;20114;-63
2021/01/10 00:20:44;;;;;;;12.73;7.07;;;;;;;1.37;60.52;102038.84;8106045;28;20543;-64
2021/01/10 00:24:35;;;;;;;14.77;7.70;;;;;;;1.37;60.38;102029.38;8104075;28;20121;-63
2021/01/10 00:28:26;;;;;;;12.75;7.47;;;;;;;1.38;60.25;102030.19;8104506;28;20039;-64
2021/01/10 00:32:16;;;;;;;10.65;6.18;;;;;;;1.35;60.29;102025.91;8103943;28;20460;-63
2021/01/10 00:36:07;;;;;;;13.38;6.45;;;;;;;1.39;60.30;102034.50;8105706;28;20028;-63
2021/01/10 00:39:57;;;;;;;11.98;6.80;;;;;;;1.39;60.29;102031.91;8104555;28;20050;-63
2021/01/10 00:43:48;;;;;;;10.57;5.93;;;;;;;1.38;60.36;102030.19;8104894;28;20087;-63
2021/01/10 00:47:40;;;;;;;11.23;6.55;;;;;;;1.37;60.22;102031.09;8103833;27;20557;-62
2021/01/10 00:51:30;;;;;;;11.38;6.60;;;;;;;1.36;59.84;102022.47;8103436;28;20028;-63
2021/01/10 00:55:22;;;;;;;11.82;6.55;;;;;;;1.33;60.96;102025.09;8103665;28;20043;-63
2021/01/10 00:59:15;;;;;;;10.88;6.15;;;;;;;1.29;60.09;102025.13;8085892;28;20091;-63
2021/01/10 01:03:06;;;;;;;10.05;5.75;;;;;;;1.26;60.43;102026.00;8069786;28;20044;-63
2021/01/10 01:06:57;;;;;;;9.75;5.75;;;;;;;1.24;60.56;102035.53;8073663;28;20543;-61
2021/01/10 01:10:49;;;;;;;11.27;6.55;;;;;;;1.25;60.37;102038.97;8101757;28;20040;-63
2021/01/10 01:14:40;;;;;;;14.70;6.95;;;;;;;1.24;60.51;102040.69;8104590;27;20479;-63
2021/01/10 01:18:30;;;;;;;15.40;7.70;;;;;;;1.24;59.88;102037.25;8102288;28;20546;-63
2021/01/10 01:22:21;;;;;;;10.40;6.18;;;;;;;1.24;60.56;102035.53;8103882;28;20031;-64
2021/01/10 01:26:18;;;;;;;11.32;6.70;;;;;;;1.25;60.39;102050.16;8104335;28;20035;-63
2021/01/10 01:30:09;;;;;;;12.95;6.35;;;;;;;1.26;60.28;102048.44;8104987;28;20043;-64
2021/01/10 01:34:00;;;;;;;9.82;6.32;;;;;;;1.26;60.93;102051.03;8102957;28;20400;-64
2021/01/10 01:37:51;;;;;;;10.60;6.20;;;;;;;1.26;60.26;102048.44;8086214;28;20027;-64
2021/01/10 01:41:41;;;;;;;11.68;6.95;;;;;;;1.25;60.61;102044.97;8102369;28;20054;-63
2021/01/10 01:45:32;;;;;;;11.07;6.60;;;;;;;1.28;60.94;102050.16;8102984;28;20063;-63
2021/01/10 01:49:23;;;;;;;9.23;5.78;;;;;;;1.29;60.94;102053.59;8103054;28;20523;-61
2021/01/10 01:53:14;;;;;;;8.30;5.22;;;;;;;1.29;61.02;102061.38;8104297;28;20043;-63
2021/01/10 01:57:05;;;;;;;13.18;6.72;;;;;;;1.30;60.04;102057.88;8102787;28;20684;-63
2021/01/10 02:00:55;;;;;;;9.82;5.93;;;;;;;1.29;60.14;102057.06;8069063;28;20152;-63
2021/01/10 02:04:50;;;;;;;13.13;7.20;;;;;;;1.30;60.39;102058.75;8070476;28;20488;-63
2021/01/10 02:08:41;;;;;;;17.38;7.25;;;;;;;1.30;60.49;102058.75;8086478;28;20040;-63
2021/01/10 02:12:34;;;;;;;14.30;6.72;;;;;;;1.31;60.38;102059.59;8102836;28;20035;-63
2021/01/10 02:16:25;;;;;;;12.90;6.45;;;;;;;1.30;60.68;102053.56;8101305;28;20043;-64
2021/01/10 02:20:25;;;;;;;11.43;6.35;;;;;;;1.24;60.29;102050.19;8102837;28;20118;-63
2021/01/10 02:24:16;;;;;;;11.15;6.50;;;;;;;1.21;60.17;102032.94;8102619;28;20034;-63
2021/01/10 02:28:09;;;;;;;11.35;6.38;;;;;;;1.29;60.20;102048.44;8102524;28;20031;-63
2021/01/10 02:32:01;;;;;;;10.88;6.25;;;;;;;1.28;60.24;102038.94;8101304;28;20445;-63
2021/01/10 02:35:53;;;;;;;12.98;6.75;;;;;;;1.28;60.60;102044.97;8102334;28;20046;-63
2021/01/10 02:39:51;;;;;;;12.40;6.82;;;;;;;1.28;60.52;102041.53;8101988;28;20387;-63
2021/01/10 02:44:03;;;;;;;10.48;5.88;;;;;;;1.28;60.11;102036.34;8102144;28;20108;-64
2021/01/10 02:47:54;;;;;;;10.63;6.25;;;;;;;1.26;60.19;102043.25;8101128;28;20043;-63
2021/01/10 02:51:45;;;;;;;11.68;6.35;;;;;;;1.25;60.13;102033.78;8102795;28;20398;-63
2021/01/10 02:55:36;;;;;;;11.95;6.57;;;;;;;1.24;60.36;102034.66;8108760;28;20039;-63
2021/01/10 02:59:30;;;;;;;13.05;7.05;;;;;;;1.20;60.07;102030.38;8087590;28;20024;-63
2021/01/10 03:03:21;;;;;;;12.73;6.32;;;;;;;1.06;60.20;102020.13;8075063;28;20094;-63
2021/01/10 03:07:12;;;;;;;12.40;7.00;;;;;;;0.96;60.14;102015.94;8078890;28;20040;-63
2021/01/10 03:11:03;;;;;;;11.20;6.53;;;;;;;0.93;60.14;102018.50;8107243;28;20032;-63
2021/01/10 03:14:57;;;;;;;9.13;6.10;;;;;;;0.91;59.87;102025.44;8107843;28;20082;-63
2021/01/10 03:18:48;;;;;;;15.00;7.13;;;;;;;0.83;59.83;102030.66;8106843;28;20267;-63
2021/01/10 03:22:39;;;;;;;13.63;6.65;;;;;;;0.74;59.84;102017.78;8107303;28;20050;-64
2021/01/10 03:26:29;;;;;;;11.02;6.53;;;;;;;0.69;59.70;102022.13;8107252;28;20084;-63
2021/01/10 03:30:20;;;;;;;13.23;6.53;;;;;;;0.63;59.95;102022.19;8105431;28;20039;-63
2021/01/10 03:34:11;;;;;;;11.77;6.57;;;;;;;0.56;59.94;102016.16;8107720;28;20419;-63
2021/01/10 03:38:06;;;;;;;12.05;7.20;;;;;;;0.51;60.01;102012.75;8106944;28;20046;-62
2021/01/10 03:41:58;;;;;;;12.68;6.63;;;;;;;0.46;59.81;102006.78;8106250;28;20092;-63
2021/01/10 03:45:48;;;;;;;11.70;6.45;;;;;;;0.40;60.43;102005.94;8097809;28;20044;-63
2021/01/10 03:49:39;;;;;;;11.70;6.35;;;;;;;0.36;59.95;102006.81;8074206;28;20192;-63
2021/01/10 03:53:30;;;;;;;13.38;6.82;;;;;;;0.32;59.80;102011.16;8073971;28;20040;-63
2021/01/10 03:57:20;;;;;;;10.30;6.45;;;;;;;0.28;59.86;102003.41;8074271;28;20385;-62
2021/01/10 04:01:11;;;;;;;9.57;5.60;;;;;;;0.24;59.62;102006.91;8072582;28;20048;-62
2021/01/10 04:05:01;;;;;;;11.38;6.65;;;;;;;0.20;59.75;102002.59;8073149;28;20411;-63
2021/01/10 04:08:53;;;;;;;13.02;7.30;;;;;;;0.17;60.27;102013.84;8091726;28;20051;-63
2021/01/10 04:12:44;;;;;;;16.40;6.95;;;;;;;0.13;59.43;102004.38;8106217;28;20027;-63
2021/01/10 04:16:34;;;;;;;9.52;6.13;;;;;;;0.10;60.06;102012.13;8104156;28;20050;-63
2021/01/10 04:20:25;;;;;;;13.27;7.38;;;;;;;0.08;60.23;102011.28;8105972;28;20034;-63
2021/01/10 04:24:16;;;;;;;16.20;8.60;;;;;;;0.07;59.61;101997.50;8106051;28;20043;-63
2021/01/10 04:28:06;;;;;;;18.20;9.30;;;;;;;0.08;59.95;102006.13;8104633;28;20040;-63
2021/01/10 04:31:57;;;;;;;19.15;8.55;;;;;;;0.07;59.95;102010.41;8104484;28;20097;-63
2021/01/10 04:35:47;;;;;;;15.02;8.48;;;;;;;0.08;60.10;102006.97;8105465;28;20041;-63
2021/01/10 04:39:38;;;;;;;15.00;7.72;;;;;;;0.11;60.50;102011.25;8104559;27;20080;-63
2021/01/10 04:43:28;;;;;;;19.15;8.73;;;;;;;0.04;60.03;101988.91;8104861;28;20531;-62
2021/01/10 04:47:20;;;;;;;21.83;8.25;;;;;;;0.13;60.10;102004.38;8104031;28;20160;-62
2021/01/10 04:51:14;;;;;;;17.45;8.27;;;;;;;0.15;59.48;102012.97;8105141;28;20028;-63
2021/01/10 04:55:06;;;;;;;15.07;7.40;;;;;;;0.18;60.10;102012.94;8104502;28;20043;-63
2021/01/10 04:59:02;;;;;;;19.58;7.63;;;;;;;0.20;59.44;102015.53;8087971;28;20038;-63
2021/01/10 05:03:02;;;;;;;14.88;6.47;;;;;;;0.20;60.28;102020.69;8071565;28;20040;-63
2021/01/10 05:06:53;;;;;;;9.45;6.20;;;;;;;0.21;60.47;102012.09;8074015;28;20028;-63
2021/01/10 05:10:44;;;;;;;10.13;5.75;;;;;;;0.21;59.98;102015.53;8103907;28;20571;-63
2021/01/10 05:14:35;;;;;;;7.82;5.00;;;;;;;0.22;59.80;102013.81;8104286;28;20388;-63
2021/01/10 05:18:25;;;;;;;10.35;5.95;;;;;;;0.23;59.73;102010.34;8103005;27;20042;-63
2021/01/10 05:22:18;;;;;;;9.32;5.55;;;;;;;0.22;60.42;102009.47;8103799;27;20038;-61
2021/01/10 05:26:08;;;;;;;10.95;6.00;;;;;;;0.22;59.31;102009.47;8103490;28;20058;-64
2021/01/10 05:30:01;;;;;;;11.93;6.00;;;;;;;0.21;59.99;102007.78;8103327;28;20373;-63
2021/01/10 05:33:51;;;;;;;12.05;6.47;;;;;;;0.23;60.31;102011.19;8101756;28;20047;-63
2021/01/10 05:37:53;;;;;;;10.95;6.40;;;;;;;0.23;59.92;102020.69;8103813;28;20493;-64
2021/01/10 05:42:04;;;;;;;11.70;6.22;;;;;;;0.23;60.36;102016.38;8103162;28;20031;-63
2021/01/10 05:45:55;;;;;;;12.65;7.03;;;;;;;0.20;59.85;102008.63;8101981;28;20042;-63
2021/01/10 05:49:49;;;;;;;13.88;6.75;;;;;;;0.25;60.24;102018.97;8081654;28;20053;-63
2021/01/10 05:53:40;;;;;;;10.10;6.75;;;;;;;0.25;60.57;102022.41;8070718;28;20250;-63
2021/01/10 05:57:31;;;;;;;12.85;7.93;;;;;;;0.26;60.42;102008.59;8070568;28;20028;-63
2021/01/10 06:01:23;;;;;;;13.38;6.93;;;;;;;0.28;60.05;102013.75;8069175;28;20043;-64
2021/01/10 06:05:20;;;;;;;13.15;7.15;;;;;;;0.29;60.23;102016.34;8070747;28;20043;-64
2021/01/10 06:09:11;;;;;;;13.57;7.85;;;;;;;0.29;60.59;102003.44;8090576;28;20107;-64
2021/01/10 06:13:02;;;;;;;13.93;7.15;;;;;;;0.30;60.37;102004.28;8102631;28;20412;-64
2021/01/10 06:16:57;;;;;;;13.02;6.93;;;;;;;0.31;60.27;102012.00;8101119;28;20031;-64
2021/01/10 06:20:53;;;;;;;10.55;6.25;;;;;;;0.25;60.17;102001.72;8102002;28;20035;-64
2021/01/10 06:24:47;;;;;;;12.38;7.32;;;;;;;0.32;60.58;102015.47;8102434;28;20023;-65
2021/01/10 06:28:42;;;;;;;12.55;7.18;;;;;;;0.32;60.25;102007.72;8106287;28;20086;-65
2021/01/10 06:32:33;;;;;;;12.30;7.55;;;;;;;0.32;59.85;102006.00;8108407;28;20043;-65
2021/01/10 06:36:27;;;;;;;14.05;6.82;;;;;;;0.33;60.41;102007.72;8109108;28;20407;-65
2021/01/10 06:40:20;;;;;;;14.35;6.95;;;;;;;0.34;60.54;102013.75;8108906;28;20402;-65
2021/01/10 06:44:11;;;;;;;12.45;7.55;;;;;;;0.34;60.63;102004.22;8108353;28;20118;-64
2021/01/10 06:48:09;;;;;;;14.82;7.47;;;;;;;0.27;60.44;101994.81;8107075;28;20134;-65
2021/01/10 06:52:03;;;;;;;12.93;7.90;;;;;;;0.34;60.15;102024.09;8108253;28;20532;-64
2021/01/10 06:55:53;;;;;;;15.70;7.65;;;;;;;0.35;60.59;102015.44;8108185;28;20035;-64
2021/01/10 06:59:55;;;;;;;12.63;7.60;;;;;;;0.37;59.91;102024.91;8084856;28;20437;-64
2021/01/10 07:03:57;;;;;;;15.93;7.63;;;;;;;0.37;60.48;102019.75;8074991;28;20032;-64
2021/01/10 07:07:48;;;;;;;13.13;7.85;;;;;;;0.39;60.32;102024.88;8084579;28;20035;-64
2021/01/10 07:11:39;;;;;;;13.57;7.15;;;;;;;0.41;60.30;102020.59;8107558;28;20057;-64
2021/01/10 07:15:30;;;;;;;15.50;8.98;;;;;;;0.42;60.48;102017.16;8107467;28;20050;-64
2021/01/10 07:19:21;;;;;;;18.45;8.27;;;;;;;0.44;60.67;102025.72;8107578;28;20024;-64
2021/01/10 07:23:25;;;;;;;17.02;8.65;;;;;;;0.43;60.35;102019.69;8108160;28;20519;-64
2021/01/10 07:27:34;;;;;;;14.48;8.05;;;;;;;0.42;60.66;102023.19;8107480;28;20038;-64
2021/01/10 07:31:24;;;;;;;13.48;8.43;;;;;;;0.44;60.30;102030.91;8106239;27;20050;-64
2021/01/10 07:35:15;;;;;;;14.23;7.18;;;;;;;0.45;60.73;102040.38;8107483;28;20036;-64
2021/01/10 07:39:06;;;;;;;16.67;8.68;;;;;;;0.46;60.76;102036.94;8106871;28;20403;-64
2021/01/10 07:43:01;;;;;;;16.15;8.40;;;;;;;0.47;60.49;102044.66;8106885;28;20031;-64
2021/01/10 07:46:59;;;;;;;16.08;8.05;;;;;;;0.49;60.71;102034.31;8104327;27;20080;-64
2021/01/10 07:50:50;;;;;;;16.67;7.97;;;;;;;0.49;60.79;102048.13;8105683;28;20035;-64
2021/01/10 07:54:54;;;;;;;12.95;7.65;;;;;;;0.49;60.93;102048.13;8089519;28;20039;-65
2021/01/10 07:58:45;;;;;;;12.73;7.45;;;;;;;0.50;60.57;102049.84;8073549;28;20032;-64
2021/01/10 08:02:50;;;;;;;12.23;7.53;;;;;;;0.51;60.90;102051.53;8073193;28;20048;-64
2021/01/10 08:06:57;;;;;;;15.77;8.32;;;;;;;0.51;60.00;102051.53;8074255;28;20068;-64
2021/01/10 08:10:51;;;;;;;16.75;8.70;;;;;;;0.54;60.56;102054.13;8105803;28;20032;-64
2021/01/10 08:14:42;;;;;;;16.70;8.88;;;;;;;0.54;60.33;102048.97;8105980;28;20587;-64
2021/01/10 08:18:35;;;;;;;13.75;7.85;;;;;;;0.56;61.05;102054.09;8104683;28;20526;-64
2021/01/10 08:22:26;;;;;;;15.40;8.35;;;;;;;0.57;60.29;102053.25;8106102;28;20507;-64
2021/01/10 08:26:17;;;;;;;14.00;8.27;;;;;;;0.60;60.87;102048.03;8064109;27;20097;-64
2021/01/10 08:30:09;;;;;;;13.95;8.18;;;;;;;0.61;60.23;102057.53;8073332;28;20036;-64
2021/01/10 08:34:04;;;;;;;18.40;8.25;;;;;;;0.62;60.49;102059.25;8071660;28;20051;-64
2021/01/10 08:37:55;;;;;;;19.95;9.15;;;;;;;0.63;60.21;102060.97;8083184;28;20031;-64
2021/01/10 08:41:47;;;;;;;20.13;9.77;;;;;;;0.65;60.43;102066.13;8105053;28;20046;-64
2021/01/10 08:45:38;;;;;;;19.73;10.32;;;;;;;0.68;60.70;102068.66;8104047;28;20084;-64
2021/01/10 08:49:28;;;;;;;18.73;8.20;;;;;;;0.71;61.09;102076.44;8104230;28;20096;-64
2021/01/10 08:53:20;;;;;;;16.67;8.82;;;;;;;0.72;60.32;102076.41;8105546;28;20573;-64
2021/01/10 08:57:12;;;;;;;14.57;8.52;;;;;;;0.75;60.54;102076.41;8103539;28;20484;-64
2021/01/10 09:01:03;;;;;;;14.15;7.82;;;;;;;0.72;60.53;102068.66;8071345;28;20047;-64
2021/01/10 09:04:53;;;;;;;14.13;7.70;;;;;;;0.79;60.82;102074.66;8072373;28;20051;-64
2021/01/10 09:08:45;;;;;;;12.57;8.02;;;;;;;0.82;60.70;102074.63;8088911;28;20037;-64
2021/01/10 09:12:53;;;;;;;14.63;7.88;;;;;;;0.84;60.31;102075.50;8104647;28;20040;-64
2021/01/10 09:16:44;;;;;;;16.35;8.82;;;;;;;0.86;61.17;102065.97;8103486;28;20119;-64
2021/01/10 09:20:41;;;;;;;14.57;8.35;;;;;;;0.85;60.69;102069.44;8104523;28;20041;-64
2021/01/10 09:24:32;;;;;;;15.32;8.60;;;;;;;0.92;61.30;102084.09;8104667;28;20383;-64
2021/01/10 09:28:24;;;;;;;20.25;8.75;;;;;;;0.94;60.32;102090.09;8103737;28;20074;-64
2021/01/10 09:32:22;;;;;;;13.68;8.52;;;;;;;0.95;60.56;102086.66;8102782;28;20118;-64
2021/01/10 09:36:18;;;;;;;18.50;7.78;;;;;;;0.98;60.92;102081.44;8097310;28;20059;-64
2021/01/10 09:40:10;;;;;;;14.02;7.85;;;;;;;0.99;61.28;102084.03;8103948;28;20431;-64
2021/01/10 09:44:02;;;;;;;15.57;8.27;;;;;;;1.04;60.91;102089.19;8100365;28;20037;-64
2021/01/10 09:47:53;;;;;;;15.93;7.90;;;;;;;1.09;60.93;102089.16;8081091;28;20044;-65
2021/01/10 09:51:51;;;;;;;15.07;8.27;;;;;;;1.12;61.03;102074.44;8070564;28;20357;-64
2021/01/10 09:55:45;;;;;;;12.15;6.97;;;;;;;1.13;61.17;102076.16;8067778;28;20028;-64
2021/01/10 09:59:54;;;;;;;11.50;6.60;;;;;;;1.17;61.15;102077.00;8087942;28;20059;-64
2021/01/10 10:03:49;;;;;;;13.48;7.68;;;;;;;1.18;61.10;102071.78;8068240;28;20044;-64
2021/01/10 10:07:45;;;;;;;12.93;7.55;;;;;;;1.24;61.18;102070.91;8078542;28;20039;-64
2021/01/10 10:11:35;;;;;;;15.52;8.55;;;;;;;1.28;61.19;102081.22;8080264;28;20084;-64
2021/01/10 10:15:51;;;;;;;13.63;7.90;;;;;;;1.33;60.94;102095.00;8081297;28;20044;-63
2021/01/10 10:19:42;;;;;;;13.57;7.82;;;;;;;1.36;60.87;102088.91;8069063;28;20039;-64
2021/01/10 10:23:32;;;;;;;15.93;8.60;;;;;;;1.40;60.93;102088.00;8069933;28;20044;-64
2021/01/10 10:27:25;;;;;;;16.13;7.75;;;;;;;1.44;61.05;102090.56;8070526;28;20035;-64
2021/01/10 10:31:16;;;;;;;19.08;9.18;;;;;;;1.47;61.34;102082.75;8079229;28;20056;-64
2021/01/10 10:35:07;;;;;;;18.92;9.85;;;;;;;1.53;61.22;102088.75;8087159;28;20097;-64
2021/01/10 10:38:57;;;;;;;17.17;7.80;;;;;;;1.57;61.19;102086.13;8101670;28;20031;-63
2021/01/10 10:42:48;;;;;;;20.75;9.05;;;;;;;1.62;61.01;102075.72;8082328;28;20040;-62
2021/01/10 10:46:41;;;;;;;17.70;9.00;;;;;;;1.67;61.68;102079.09;8083577;28;20043;-64
2021/01/10 10:50:33;;;;;;;18.58;9.32;;;;;;;1.71;61.30;102070.47;8085053;28;20031;-64
2021/01/10 10:54:24;;;;;;;16.77;9.27;;;;;;;1.77;61.00;102067.78;8085920;28;20031;-64
2021/01/10 10:58:14;;;;;;;18.20;8.95;;;;;;;1.82;61.35;102063.44;8086212;28;20062;-63
2021/01/10 11:02:09;;;;;;;19.00;8.93;;;;;;;1.86;61.03;102067.69;8068515;28;20048;-65
2021/01/10 11:06:00;;;;;;;19.45;9.07;;;;;;;1.90;61.69;102064.19;8069842;28;20109;-65
2021/01/10 11:09:50;;;;;;;16.38;8.80;;;;;;;1.94;61.34;102058.09;8069396;28;20444;-64
2021/01/10 11:13:41;;;;;;;17.75;9.18;;;;;;;2.01;61.79;102058.88;8072044;28;20035;-65
2021/01/10 11:17:32;;;;;;;18.00;8.65;;;;;;;2.06;61.12;102057.09;8074156;28;20036;-65
2021/01/10 11:21:33;;;;;;;20.00;9.25;;;;;;;2.10;61.72;102045.81;8074980;28;20065;-65
2021/01/10 11:25:24;;;;;;;19.70;9.23;;;;;;;2.17;61.47;102047.44;8068758;28;20032;-64
2021/01/10 11:29:16;;;;;;;16.45;8.27;;;;;;;2.21;61.50;102042.19;8075797;28;20030;-64
2021/01/10 11:33:06;;;;;;;14.55;7.97;;;;;;;2.23;61.25;102018.84;8085596;27;20050;-66
2021/01/10 11:36:57;;;;;;;16.85;8.60;;;;;;;2.33;61.79;102023.88;8087556;28;20036;-63
2021/01/10 11:40:48;;;;;;;21.92;9.18;;;;;;;2.39;61.20;102021.22;8088992;28;20043;-65
2021/01/10 11:44:38;;;;;;;20.70;10.10;;;;;;;2.38;61.50;102006.53;8085139;28;20159;-65
2021/01/10 11:48:29;;;;;;;18.90;9.57;;;;;;;2.51;61.66;102015.00;8083149;28;20522;-65
2021/01/10 11:52:19;;;;;;;18.58;8.50;;;;;;;2.57;61.77;102009.75;8086750;28;20092;-64
2021/01/10 11:56:10;;;;;;;26.38;10.40;;;;;;;2.57;61.83;101996.75;8085630;28;20095;-64
2021/01/10 12:00:01;;;;;;;19.65;9.43;;;;;;;2.65;61.71;102000.09;8081609;28;20503;-63
2021/01/10 12:03:51;;;;;;;13.05;8.55;;;;;;;2.69;61.75;101995.72;8085974;28;20040;-64
2021/01/10 12:07:42;;;;;;;16.67;8.70;;;;;;;2.72;61.59;101985.28;8088708;28;20581;-65
2021/01/10 12:11:33;;;;;;;17.75;9.85;;;;;;;2.72;61.70;101986.13;8089325;28;20116;-64
2021/01/10 12:15:23;;;;;;;19.48;9.90;;;;;;;2.70;61.52;101977.50;8086951;28;20033;-65
2021/01/10 12:19:14;;;;;;;14.55;8.55;;;;;;;2.67;61.69;101981.91;8085532;28;20031;-64
2021/01/10 12:23:04;;;;;;;16.48;8.65;;;;;;;2.64;61.69;101977.63;8086565;28;20651;-65
2021/01/10 12:26:55;;;;;;;22.10;8.43;;;;;;;2.64;61.38;101979.34;8083881;28;20036;-65
2021/01/10 12:30:46;;;;;;;14.05;7.95;;;;;;;2.67;61.47;101974.09;8084590;28;20124;-64
2021/01/10 12:34:36;;;;;;;15.25;7.72;;;;;;;2.73;61.97;101971.44;8089268;28;20035;-65
2021/01/10 12:38:27;;;;;;;15.90;8.30;;;;;;;2.79;61.66;101972.19;8086583;28;20036;-64
2021/01/10 12:42:18;;;;;;;13.02;7.88;;;;;;;2.86;61.54;101976.41;8086564;27;20039;-64
2021/01/10 12:46:09;;;;;;;12.00;7.40;;;;;;;2.93;61.50;101976.28;8086578;27;20043;-64
2021/01/10 12:49:59;;;;;;;19.13;8.75;;;;;;;2.98;61.51;101971.88;8085260;28;20054;-64
2021/01/10 12:53:50;;;;;;;13.43;7.55;;;;;;;3.01;61.64;101974.41;8085981;28;20043;-64
2021/01/10 12:57:40;;;;;;;16.27;8.23;;;;;;;3.08;61.57;101979.47;8083025;28;20069;-63
2021/01/10 13:01:34;;;;;;;14.27;7.57;;;;;;;3.13;61.48;101969.00;8082676;28;20578;-65
2021/01/10 13:05:25;;;;;;;17.30;7.55;;;;;;;3.18;61.85;101973.25;8086228;27;20122;-64
2021/01/10 13:09:16;;;;;;;17.25;8.52;;;;;;;3.22;61.82;101956.72;8086829;28;20038;-64
2021/01/10 13:13:07;;;;;;;27.13;9.27;;;;;;;3.28;61.61;101960.97;8085771;28;20067;-65
2021/01/10 13:16:57;;;;;;;19.42;8.93;;;;;;;3.25;61.36;101958.41;8080382;27;20120;-63
2021/01/10 13:20:48;;;;;;;14.80;7.95;;;;;;;3.31;61.35;101966.97;8083824;28;20032;-65
2021/01/10 13:24:38;;;;;;;13.90;8.02;;;;;;;3.32;61.31;101966.06;8084139;28;20050;-63
2021/01/10 13:28:29;;;;;;;16.95;7.95;;;;;;;3.36;61.47;101968.63;8082060;28;20527;-64
2021/01/10 13:32:20;;;;;;;23.73;8.40;;;;;;;3.38;61.54;101966.84;8084064;27;20820;-64
2021/01/10 13:36:10;;;;;;;23.17;8.90;;;;;;;3.36;61.27;101945.25;8081059;28;20042;-64
2021/01/10 13:40:01;;;;;;;15.02;8.05;;;;;;;3.41;61.31;101951.19;8087021;28;20031;-65
2021/01/10 13:43:52;;;;;;;16.45;8.60;;;;;;;3.42;61.48;101947.72;8085361;28;20028;-65
2021/01/10 13:47:43;;;;;;;19.40;8.23;;;;;;;3.44;61.36;101951.16;8083993;28;20108;-65
2021/01/10 13:51:34;;;;;;;14.55;8.45;;;;;;;3.44;61.44;101949.44;8084563;28;20038;-64
2021/01/10 13:55:25;;;;;;;19.50;8.82;;;;;;;3.45;60.64;101945.09;8080308;28;20035;-64
2021/01/10 13:59:15;;;;;;;18.77;7.70;;;;;;;3.44;61.28;101948.56;8082757;28;20032;-64
2021/01/10 14:03:06;;;;;;;14.57;7.65;;;;;;;3.42;61.24;101951.19;8083574;28;20028;-63
2021/01/10 14:06:58;;;;;;;14.00;7.32;;;;;;;3.42;61.18;101958.97;8085120;28;20139;-63
2021/01/10 14:10:49;;;;;;;15.50;8.32;;;;;;;3.41;61.15;101965.03;8082090;28;20038;-62
2021/01/10 14:14:39;;;;;;;15.60;8.75;;;;;;;3.39;61.36;101964.25;8076279;28;20036;-64
2021/01/10 14:18:30;;;;;;;13.50;7.32;;;;;;;3.41;61.54;101974.56;8078513;28;20097;-64
2021/01/10 14:22:20;;;;;;;15.20;8.57;;;;;;;3.41;61.06;101971.97;8080372;28;20740;-62
2021/01/10 14:26:11;;;;;;;12.85;7.32;;;;;;;3.40;61.17;101967.69;8079543;28;20039;-62
2021/01/10 14:30:02;;;;;;;13.77;7.90;;;;;;;3.36;61.01;101969.50;8081333;28;20031;-64
2021/01/10 14:33:52;;;;;;;13.63;7.78;;;;;;;3.30;60.84;101954.00;8081760;28;20052;-63
2021/01/10 14:37:43;;;;;;;17.05;8.95;;;;;;;3.32;61.03;101966.06;8083491;28;20031;-63
2021/01/10 14:41:37;;;;;;;14.68;7.80;;;;;;;3.31;60.97;101976.50;8083914;28;20039;-63
2021/01/10 14:45:28;;;;;;;15.50;8.65;;;;;;;3.21;60.92;101955.00;8080571;28;20527;-63
2021/01/10 14:49:18;;;;;;;14.45;7.07;;;;;;;3.24;61.18;101967.09;8084819;28;20039;-63
2021/01/10 14:53:09;;;;;;;17.92;7.68;;;;;;;3.26;61.06;101981.75;8086719;28;20035;-63
2021/01/10 14:57:01;;;;;;;12.68;7.68;;;;;;;3.22;60.64;101966.25;8084669;27;20081;-63
2021/01/10 15:00:51;;;;;;;17.88;8.43;;;;;;;3.18;60.65;101980.19;8083963;28;20043;-63
2021/01/10 15:04:42;;;;;;;16.13;8.25;;;;;;;3.10;60.61;101972.53;8087326;28;20052;-64
2021/01/10 15:08:33;;;;;;;15.43;8.23;;;;;;;3.08;60.65;101970.81;8086039;28;20039;-63
2021/01/10 15:12:24;;;;;;;13.93;7.28;;;;;;;2.99;60.26;101961.47;8088863;28;20070;-64
2021/01/10 15:16:15;;;;;;;14.18;8.05;;;;;;;2.91;60.11;101965.91;8087145;28;20062;-63
2021/01/10 15:20:06;;;;;;;16.45;7.78;;;;;;;2.81;60.58;101966.97;8089773;28;20032;-63
2021/01/10 15:23:57;;;;;;;14.23;7.82;;;;;;;2.72;60.25;101965.38;8087987;28;20462;-62
2021/01/10 15:27:47;;;;;;;11.73;7.32;;;;;;;2.63;60.23;101957.75;8086652;28;20040;-64
2021/01/10 15:31:38;;;;;;;14.05;8.20;;;;;;;2.54;60.12;101959.63;8087229;28;20047;-63
2021/01/10 15:35:28;;;;;;;14.60;7.93;;;;;;;2.47;60.06;101961.47;8088141;28;20554;-63
2021/01/10 15:39:19;;;;;;;12.30;8.27;;;;;;;2.36;60.11;101961.63;8088448;28;20044;-63
2021/01/10 15:43:09;;;;;;;17.30;7.97;;;;;;;2.30;59.88;101963.44;8087552;27;20039;-63
2021/01/10 15:47:00;;;;;;;18.63;7.88;;;;;;;2.22;59.76;101960.09;8088298;28;20044;-61
2021/01/10 15:50:51;;;;;;;25.17;13.30;;;;;;;2.13;60.12;101966.25;8086418;28;20044;-63
2021/01/10 15:54:41;;;;;;;28.55;14.80;;;;;;;2.07;59.61;101963.78;8086916;28;20111;-63
2021/01/10 15:58:32;;;;;;;26.80;11.32;;;;;;;2.01;59.75;101960.38;8085179;28;20055;-62
2021/01/10 16:02:22;;;;;;;22.85;10.75;;;;;;;1.93;59.81;101956.19;8084581;28;20064;-63
2021/01/10 16:06:13;;;;;;;21.77;10.82;;;;;;;1.86;59.72;101962.31;8087882;28;20407;-63
2021/01/10 16:10:06;;;;;;;16.33;9.25;;;;;;;1.79;59.77;101960.66;8087302;28;20116;-64
2021/01/10 16:13:56;;;;;;;12.43;7.57;;;;;;;1.71;59.48;101944.34;8086225;28;20064;-62
2021/01/10 16:17:47;;;;;;;13.27;7.15;;;;;;;1.68;59.58;101948.72;8084891;28;20047;-62
2021/01/10 16:21:37;;;;;;;12.45;7.47;;;;;;;1.63;60.19;101955.69;8086131;28;20036;-62
2021/01/10 16:25:28;;;;;;;12.18;6.90;;;;;;;1.59;59.74;101954.00;8086233;28;20028;-62
2021/01/10 16:29:18;;;;;;;13.93;7.45;;;;;;;1.53;59.74;101954.97;8080516;28;20040;-63
2021/01/10 16:33:09;;;;;;;17.65;7.47;;;;;;;1.48;60.01;101960.19;8086199;28;20066;-63
2021/01/10 16:37:00;;;;;;;14.10;6.80;;;;;;;1.43;59.59;101966.28;8086635;28;20533;-63
2021/01/10 16:40:50;;;;;;;12.93;5.85;;;;;;;1.39;59.58;101960.28;8082258;28;20134;-63
2021/01/10 16:44:41;;;;;;;13.55;6.25;;;;;;;1.34;59.94;101959.47;8084948;28;20073;-64
2021/01/10 16:48:32;;;;;;;15.07;6.00;;;;;;;1.26;59.48;101963.00;8085034;28;20065;-68
2021/01/10 16:52:22;;;;;;;13.20;7.57;;;;;;;1.26;59.76;101970.78;8083233;28;20050;-67
2021/01/10 16:56:16;;;;;;;12.63;6.25;;;;;;;1.21;59.16;101970.81;8081061;28;20032;-68
2021/01/10 17:00:07;;;;;;;12.95;7.35;;;;;;;1.16;59.51;101969.16;8083869;28;20060;-68
2021/01/10 17:03:58;;;;;;;16.52;8.80;;;;;;;1.11;59.55;101963.16;8079217;27;20103;-67
2021/01/10 17:07:49;;;;;;;12.15;6.85;;;;;;;1.06;59.54;101968.38;8079604;28;20043;-67
2021/01/10 17:11:40;;;;;;;18.23;6.32;;;;;;;1.03;59.68;101961.53;8080289;28;20579;-66
2021/01/10 17:15:31;;;;;;;12.10;6.85;;;;;;;0.99;59.73;101961.56;8079313;28;20764;-67
2021/01/10 17:19:21;;;;;;;12.90;5.78;;;;;;;0.96;59.13;101959.00;8083644;28;20698;-67
2021/01/10 17:23:12;;;;;;;9.88;5.18;;;;;;;0.93;59.43;101964.19;8084725;28;20052;-66
2021/01/10 17:27:03;;;;;;;11.48;5.80;;;;;;;0.89;59.58;101955.59;8083068;28;20040;-67
2021/01/10 17:30:54;;;;;;;9.05;5.25;;;;;;;0.86;59.09;101946.97;8085374;28;20056;-67
2021/01/10 17:34:44;;;;;;;11.02;5.65;;;;;;;0.84;59.52;101948.75;8083874;28;20067;-66
2021/01/10 17:38:35;;;;;;;15.32;6.18;;;;;;;0.78;59.46;101948.78;8083768;28;20039;-67
2021/01/10 17:42:26;;;;;;;11.30;6.15;;;;;;;0.76;59.39;101950.50;8082402;27;20042;-67
2021/01/10 17:46:18;;;;;;;21.65;6.53;;;;;;;0.73;59.28;101950.53;8077137;28;20055;-67
2021/01/10 17:50:11;;;;;;;9.75;6.18;;;;;;;0.70;59.82;101951.44;8081188;28;20710;-67
2021/01/10 17:54:04;;;;;;;11.38;5.93;;;;;;;0.66;59.59;101952.31;8087247;28;20071;-67
2021/01/10 17:57:54;;;;;;;12.93;5.90;;;;;;;0.65;59.45;101952.31;8083211;28;20837;-66